Basehor, Kansas
Current Conditions -  °F | °C
As of 4:53 AM on Friday 24 Oct 2014 (Local Time) from KMCI Reporting Station
Haze Haze  
Wind Chill: 57°   Ceiling: 200
Heat Index: 57°   Visibility: 0.5mi
Dew Point: 57°   Wind: 10mph
Humidity: 100%   Direction: 190°S
Pressure: 30.05"   Gusts: NA
Location:  39.14°N, 94.94°W
Report Text: KMCI 240953Z 19009KT 1/2SM R19R/P6000FT BR OVC002 14/14 A3005 RMK AO2 SFC VIS 1 3/4 SLP170 T01390139
Loading
Personal Weather Stations






























Interactive Weather Map
Tropical Storm Tracking
New forecast layout! Learn more

10-Day Weather Forecast

Advertisements
Track Severe Weather on mobile